sensor_id;sensor_type;location;lat;lon;timestamp;P1;durP1;ratioP1;P2;durP2;ratioP2
15476;SDS011;7840;42.702;23.296;2023-03-23T00:00:56;97.53;;;59.43;;
15476;SDS011;7840;42.702;23.296;2023-03-23T00:03:25;88.07;;;54.90;;
15476;SDS011;7840;42.702;23.296;2023-03-23T00:05:54;90.23;;;58.37;;
15476;SDS011;7840;42.702;23.296;2023-03-23T00:08:24;92.03;;;58.23;;
15476;SDS011;7840;42.702;23.296;2023-03-23T00:10:52;76.43;;;52.73;;
15476;SDS011;7840;42.702;23.296;2023-03-23T00:13:22;73.57;;;54.40;;
15476;SDS011;7840;42.702;23.296;2023-03-23T00:15:50;68.40;;;51.47;;
15476;SDS011;7840;42.702;23.296;2023-03-23T00:18:18;64.20;;;48.13;;
15476;SDS011;7840;42.702;23.296;2023-03-23T00:20:48;63.37;;;47.80;;
15476;SDS011;7840;42.702;23.296;2023-03-23T00:23:16;60.23;;;45.57;;
15476;SDS011;7840;42.702;23.296;2023-03-23T00:25:48;63.43;;;49.90;;
15476;SDS011;7840;42.702;23.296;2023-03-23T00:28:18;64.13;;;49.13;;
15476;SDS011;7840;42.702;23.296;2023-03-23T00:30:54;68.93;;;51.40;;
15476;SDS011;7840;42.702;23.296;2023-03-23T00:33:22;68.50;;;49.30;;
15476;SDS011;7840;42.702;23.296;2023-03-23T00:35:50;62.57;;;47.13;;
15476;SDS011;7840;42.702;23.296;2023-03-23T00:38:18;55.90;;;39.90;;
15476;SDS011;7840;42.702;23.296;2023-03-23T00:40:45;44.30;;;33.97;;
15476;SDS011;7840;42.702;23.296;2023-03-23T00:43:13;41.23;;;30.53;;
15476;SDS011;7840;42.702;23.296;2023-03-23T00:45:41;42.83;;;34.77;;
15476;SDS011;7840;42.702;23.296;2023-03-23T00:48:11;45.97;;;35.83;;
15476;SDS011;7840;42.702;23.296;2023-03-23T00:50:38;40.90;;;32.57;;
15476;SDS011;7840;42.702;23.296;2023-03-23T00:53:06;45.17;;;36.43;;
15476;SDS011;7840;42.702;23.296;2023-03-23T00:55:33;46.43;;;36.63;;
15476;SDS011;7840;42.702;23.296;2023-03-23T00:58:03;46.93;;;36.47;;
15476;SDS011;7840;42.702;23.296;2023-03-23T01:00:30;50.23;;;37.70;;
15476;SDS011;7840;42.702;23.296;2023-03-23T01:02:58;49.33;;;39.23;;
15476;SDS011;7840;42.702;23.296;2023-03-23T01:05:27;52.27;;;39.23;;
15476;SDS011;7840;42.702;23.296;2023-03-23T01:07:57;53.73;;;41.80;;
15476;SDS011;7840;42.702;23.296;2023-03-23T01:10:24;51.87;;;39.00;;
15476;SDS011;7840;42.702;23.296;2023-03-23T01:12:52;53.33;;;37.53;;
15476;SDS011;7840;42.702;23.296;2023-03-23T01:15:20;45.70;;;37.60;;
15476;SDS011;7840;42.702;23.296;2023-03-23T01:17:47;49.57;;;38.07;;
15476;SDS011;7840;42.702;23.296;2023-03-23T01:20:15;51.87;;;37.47;;
15476;SDS011;7840;42.702;23.296;2023-03-23T01:22:43;49.03;;;38.10;;
15476;SDS011;7840;42.702;23.296;2023-03-23T01:25:11;45.83;;;36.70;;
15476;SDS011;7840;42.702;23.296;2023-03-23T01:27:39;45.87;;;36.47;;
15476;SDS011;7840;42.702;23.296;2023-03-23T01:30:08;45.47;;;36.43;;
15476;SDS011;7840;42.702;23.296;2023-03-23T01:32:35;47.47;;;37.40;;
15476;SDS011;7840;42.702;23.296;2023-03-23T01:35:03;51.03;;;38.43;;
15476;SDS011;7840;42.702;23.296;2023-03-23T01:37:31;53.67;;;40.00;;
15476;SDS011;7840;42.702;23.296;2023-03-23T01:39:59;54.67;;;40.87;;
15476;SDS011;7840;42.702;23.296;2023-03-23T01:42:30;58.43;;;42.27;;
15476;SDS011;7840;42.702;23.296;2023-03-23T01:45:21;53.80;;;39.80;;
15476;SDS011;7840;42.702;23.296;2023-03-23T01:50:41;57.03;;;39.40;;
15476;SDS011;7840;42.702;23.296;2023-03-23T01:53:22;53.43;;;41.07;;
15476;SDS011;7840;42.702;23.296;2023-03-23T01:55:53;53.63;;;40.33;;
15476;SDS011;7840;42.702;23.296;2023-03-23T01:58:21;49.27;;;38.40;;
15476;SDS011;7840;42.702;23.296;2023-03-23T02:00:52;67.60;;;48.80;;
15476;SDS011;7840;42.702;23.296;2023-03-23T02:03:22;67.57;;;48.10;;
15476;SDS011;7840;42.702;23.296;2023-03-23T02:05:53;80.23;;;54.67;;
15476;SDS011;7840;42.702;23.296;2023-03-23T02:08:23;77.97;;;51.93;;
15476;SDS011;7840;42.702;23.296;2023-03-23T02:11:11;56.63;;;42.37;;
15476;SDS011;7840;42.702;23.296;2023-03-23T02:13:39;57.20;;;41.13;;
15476;SDS011;7840;42.702;23.296;2023-03-23T02:16:08;50.00;;;37.20;;
15476;SDS011;7840;42.702;23.296;2023-03-23T02:18:40;49.80;;;38.30;;
15476;SDS011;7840;42.702;23.296;2023-03-23T02:21:26;54.23;;;40.53;;
15476;SDS011;7840;42.702;23.296;2023-03-23T02:24:03;54.70;;;40.20;;
15476;SDS011;7840;42.702;23.296;2023-03-23T02:26:41;50.93;;;38.37;;
15476;SDS011;7840;42.702;23.296;2023-03-23T02:32:28;52.60;;;39.30;;
15476;SDS011;7840;42.702;23.296;2023-03-23T02:35:01;53.63;;;39.43;;
15476;SDS011;7840;42.702;23.296;2023-03-23T02:37:30;55.67;;;40.53;;
15476;SDS011;7840;42.702;23.296;2023-03-23T02:40:02;57.23;;;40.80;;
15476;SDS011;7840;42.702;23.296;2023-03-23T02:42:34;53.17;;;39.50;;
15476;SDS011;7840;42.702;23.296;2023-03-23T02:45:04;55.10;;;39.87;;
15476;SDS011;7840;42.702;23.296;2023-03-23T02:47:32;50.47;;;36.90;;
15476;SDS011;7840;42.702;23.296;2023-03-23T02:50:02;44.97;;;35.47;;
15476;SDS011;7840;42.702;23.296;2023-03-23T02:52:48;57.43;;;39.53;;
15476;SDS011;7840;42.702;23.296;2023-03-23T02:55:37;51.83;;;39.97;;
15476;SDS011;7840;42.702;23.296;2023-03-23T02:58:07;55.60;;;40.33;;
15476;SDS011;7840;42.702;23.296;2023-03-23T03:00:34;51.17;;;38.67;;
15476;SDS011;7840;42.702;23.296;2023-03-23T03:03:02;48.00;;;37.93;;
15476;SDS011;7840;42.702;23.296;2023-03-23T03:05:36;46.20;;;35.93;;
15476;SDS011;7840;42.702;23.296;2023-03-23T03:08:10;46.33;;;33.03;;
15476;SDS011;7840;42.702;23.296;2023-03-23T03:10:42;44.17;;;30.27;;
15476;SDS011;7840;42.702;23.296;2023-03-23T03:13:19;42.80;;;30.57;;
15476;SDS011;7840;42.702;23.296;2023-03-23T03:15:48;34.73;;;27.97;;
15476;SDS011;7840;42.702;23.296;2023-03-23T03:18:18;36.37;;;27.60;;
15476;SDS011;7840;42.702;23.296;2023-03-23T03:20:49;37.80;;;27.83;;
15476;SDS011;7840;42.702;23.296;2023-03-23T03:23:18;34.67;;;27.07;;
15476;SDS011;7840;42.702;23.296;2023-03-23T03:25:46;38.30;;;29.33;;
15476;SDS011;7840;42.702;23.296;2023-03-23T03:28:15;32.93;;;25.97;;
15476;SDS011;7840;42.702;23.296;2023-03-23T03:30:46;33.23;;;26.70;;
15476;SDS011;7840;42.702;23.296;2023-03-23T03:33:15;29.67;;;24.67;;
15476;SDS011;7840;42.702;23.296;2023-03-23T03:35:42;29.07;;;23.73;;
15476;SDS011;7840;42.702;23.296;2023-03-23T03:38:14;26.10;;;21.90;;
15476;SDS011;7840;42.702;23.296;2023-03-23T03:40:42;28.63;;;21.60;;
15476;SDS011;7840;42.702;23.296;2023-03-23T03:43:09;24.03;;;19.40;;
15476;SDS011;7840;42.702;23.296;2023-03-23T03:45:36;32.57;;;22.93;;
15476;SDS011;7840;42.702;23.296;2023-03-23T03:48:17;26.47;;;22.83;;
15476;SDS011;7840;42.702;23.296;2023-03-23T03:50:45;27.27;;;22.57;;
15476;SDS011;7840;42.702;23.296;2023-03-23T03:53:14;27.00;;;22.63;;
15476;SDS011;7840;42.702;23.296;2023-03-23T03:55:41;29.10;;;23.10;;
15476;SDS011;7840;42.702;23.296;2023-03-23T03:58:10;27.53;;;23.20;;
15476;SDS011;7840;42.702;23.296;2023-03-23T04:00:37;27.60;;;23.40;;
15476;SDS011;7840;42.702;23.296;2023-03-23T04:03:06;31.30;;;23.90;;
15476;SDS011;7840;42.702;23.296;2023-03-23T04:05:34;34.43;;;25.27;;
15476;SDS011;7840;42.702;23.296;2023-03-23T04:08:05;28.57;;;24.10;;
15476;SDS011;7840;42.702;23.296;2023-03-23T04:10:48;29.23;;;23.77;;
15476;SDS011;7840;42.702;23.296;2023-03-23T04:13:15;31.67;;;23.80;;
15476;SDS011;7840;42.702;23.296;2023-03-23T04:15:43;25.97;;;22.27;;
15476;SDS011;7840;42.702;23.296;2023-03-23T04:18:12;31.30;;;23.37;;
15476;SDS011;7840;42.702;23.296;2023-03-23T04:20:42;32.10;;;25.80;;
15476;SDS011;7840;42.702;23.296;2023-03-23T04:23:10;47.43;;;31.97;;
15476;SDS011;7840;42.702;23.296;2023-03-23T04:25:45;39.53;;;31.57;;
15476;SDS011;7840;42.702;23.296;2023-03-23T04:28:13;44.33;;;31.97;;
15476;SDS011;7840;42.702;23.296;2023-03-23T04:30:44;45.17;;;32.97;;
15476;SDS011;7840;42.702;23.296;2023-03-23T04:33:17;45.57;;;33.23;;
15476;SDS011;7840;42.702;23.296;2023-03-23T04:35:46;44.37;;;34.10;;
15476;SDS011;7840;42.702;23.296;2023-03-23T04:38:14;42.90;;;33.50;;
15476;SDS011;7840;42.702;23.296;2023-03-23T04:40:46;54.70;;;40.47;;
15476;SDS011;7840;42.702;23.296;2023-03-23T04:43:18;51.97;;;37.37;;
15476;SDS011;7840;42.702;23.296;2023-03-23T04:45:46;49.07;;;37.30;;
15476;SDS011;7840;42.702;23.296;2023-03-23T04:48:14;46.27;;;36.30;;
15476;SDS011;7840;42.702;23.296;2023-03-23T04:50:41;45.03;;;35.17;;
15476;SDS011;7840;42.702;23.296;2023-03-23T04:53:13;43.47;;;35.77;;
15476;SDS011;7840;42.702;23.296;2023-03-23T04:55:56;48.87;;;37.40;;
15476;SDS011;7840;42.702;23.296;2023-03-23T05:01:21;44.53;;;34.40;;
15476;SDS011;7840;42.702;23.296;2023-03-23T05:03:49;50.30;;;36.13;;
15476;SDS011;7840;42.702;23.296;2023-03-23T05:06:19;48.27;;;34.47;;
15476;SDS011;7840;42.702;23.296;2023-03-23T05:08:49;44.90;;;35.60;;
15476;SDS011;7840;42.702;23.296;2023-03-23T05:11:22;46.40;;;36.20;;
15476;SDS011;7840;42.702;23.296;2023-03-23T05:13:49;45.40;;;35.03;;
15476;SDS011;7840;42.702;23.296;2023-03-23T05:16:16;45.37;;;34.77;;
15476;SDS011;7840;42.702;23.296;2023-03-23T05:18:45;47.40;;;36.87;;
15476;SDS011;7840;42.702;23.296;2023-03-23T05:21:14;48.37;;;36.30;;
15476;SDS011;7840;42.702;23.296;2023-03-23T05:23:43;47.17;;;36.03;;
15476;SDS011;7840;42.702;23.296;2023-03-23T05:26:11;47.33;;;37.90;;
15476;SDS011;7840;42.702;23.296;2023-03-23T05:28:38;50.33;;;38.87;;
15476;SDS011;7840;42.702;23.296;2023-03-23T05:31:08;49.80;;;38.20;;
15476;SDS011;7840;42.702;23.296;2023-03-23T05:33:39;44.83;;;35.07;;
15476;SDS011;7840;42.702;23.296;2023-03-23T05:36:18;41.53;;;34.53;;
15476;SDS011;7840;42.702;23.296;2023-03-23T05:38:53;49.37;;;35.10;;
15476;SDS011;7840;42.702;23.296;2023-03-23T05:41:46;43.43;;;33.27;;
15476;SDS011;7840;42.702;23.296;2023-03-23T05:44:13;40.93;;;33.87;;
15476;SDS011;7840;42.702;23.296;2023-03-23T05:46:52;41.60;;;32.40;;
15476;SDS011;7840;42.702;23.296;2023-03-23T05:49:19;44.77;;;35.80;;
15476;SDS011;7840;42.702;23.296;2023-03-23T05:51:49;42.83;;;34.07;;
15476;SDS011;7840;42.702;23.296;2023-03-23T05:54:19;45.80;;;35.50;;
15476;SDS011;7840;42.702;23.296;2023-03-23T05:57:09;45.73;;;36.17;;
15476;SDS011;7840;42.702;23.296;2023-03-23T05:59:36;54.00;;;38.30;;
15476;SDS011;7840;42.702;23.296;2023-03-23T06:02:17;53.13;;;37.03;;
15476;SDS011;7840;42.702;23.296;2023-03-23T06:04:44;44.07;;;35.57;;
15476;SDS011;7840;42.702;23.296;2023-03-23T06:07:17;46.37;;;36.80;;
15476;SDS011;7840;42.702;23.296;2023-03-23T06:09:48;44.40;;;36.67;;
15476;SDS011;7840;42.702;23.296;2023-03-23T06:12:16;47.97;;;38.10;;
15476;SDS011;7840;42.702;23.296;2023-03-23T06:14:46;46.03;;;35.60;;
15476;SDS011;7840;42.702;23.296;2023-03-23T06:17:18;43.90;;;35.50;;
15476;SDS011;7840;42.702;23.296;2023-03-23T06:19:46;42.57;;;35.20;;
15476;SDS011;7840;42.702;23.296;2023-03-23T06:22:45;45.20;;;33.53;;
15476;SDS011;7840;42.702;23.296;2023-03-23T06:25:12;41.60;;;32.93;;
15476;SDS011;7840;42.702;23.296;2023-03-23T06:27:43;43.83;;;35.53;;
15476;SDS011;7840;42.702;23.296;2023-03-23T06:30:18;41.97;;;34.67;;
15476;SDS011;7840;42.702;23.296;2023-03-23T06:32:51;42.63;;;34.53;;
15476;SDS011;7840;42.702;23.296;2023-03-23T06:35:22;41.53;;;33.27;;
15476;SDS011;7840;42.702;23.296;2023-03-23T07:06:29;28.83;;;25.77;;
15476;SDS011;7840;42.702;23.296;2023-03-23T07:08:56;30.77;;;26.50;;
15476;SDS011;7840;42.702;23.296;2023-03-23T07:11:24;30.10;;;26.50;;
15476;SDS011;7840;42.702;23.296;2023-03-23T07:13:51;33.70;;;27.87;;
15476;SDS011;7840;42.702;23.296;2023-03-23T07:16:19;30.03;;;25.40;;
15476;SDS011;7840;42.702;23.296;2023-03-23T07:18:46;28.37;;;25.27;;
15476;SDS011;7840;42.702;23.296;2023-03-23T07:21:13;38.60;;;27.07;;
15476;SDS011;7840;42.702;23.296;2023-03-23T07:23:42;30.20;;;25.23;;
15476;SDS011;7840;42.702;23.296;2023-03-23T07:26:11;31.23;;;26.07;;
15476;SDS011;7840;42.702;23.296;2023-03-23T07:28:38;31.30;;;26.10;;
15476;SDS011;7840;42.702;23.296;2023-03-23T07:31:06;32.10;;;26.40;;
15476;SDS011;7840;42.702;23.296;2023-03-23T07:33:36;30.37;;;25.40;;
15476;SDS011;7840;42.702;23.296;2023-03-23T07:36:04;32.97;;;26.87;;
15476;SDS011;7840;42.702;23.296;2023-03-23T07:38:31;33.53;;;27.00;;
15476;SDS011;7840;42.702;23.296;2023-03-23T07:41:00;31.37;;;26.03;;
15476;SDS011;7840;42.702;23.296;2023-03-23T07:43:28;32.90;;;25.83;;
15476;SDS011;7840;42.702;23.296;2023-03-23T07:45:55;31.10;;;23.80;;
15476;SDS011;7840;42.702;23.296;2023-03-23T07:48:23;30.10;;;24.73;;
15476;SDS011;7840;42.702;23.296;2023-03-23T07:50:50;26.27;;;23.23;;
15476;SDS011;7840;42.702;23.296;2023-03-23T07:53:17;32.47;;;25.27;;
15476;SDS011;7840;42.702;23.296;2023-03-23T07:55:46;29.70;;;24.98;;
15476;SDS011;7840;42.702;23.296;2023-03-23T07:58:15;29.42;;;23.60;;
15476;SDS011;7840;42.702;23.296;2023-03-23T08:00:44;28.05;;;23.42;;
15476;SDS011;7840;42.702;23.296;2023-03-23T08:03:14;29.75;;;22.75;;
15476;SDS011;7840;42.702;23.296;2023-03-23T08:05:41;28.63;;;21.33;;
15476;SDS011;7840;42.702;23.296;2023-03-23T08:08:08;30.00;;;23.42;;
15476;SDS011;7840;42.702;23.296;2023-03-23T08:10:41;28.70;;;22.30;;
15476;SDS011;7840;42.702;23.296;2023-03-23T08:13:09;26.63;;;23.48;;
15476;SDS011;7840;42.702;23.296;2023-03-23T08:15:38;26.98;;;23.38;;
15476;SDS011;7840;42.702;23.296;2023-03-23T08:18:08;26.15;;;19.88;;
15476;SDS011;7840;42.702;23.296;2023-03-23T08:20:36;24.42;;;20.10;;
15476;SDS011;7840;42.702;23.296;2023-03-23T08:23:03;23.50;;;18.98;;
15476;SDS011;7840;42.702;23.296;2023-03-23T08:25:31;20.05;;;17.33;;
15476;SDS011;7840;42.702;23.296;2023-03-23T08:27:59;17.65;;;15.35;;
15476;SDS011;7840;42.702;23.296;2023-03-23T08:30:28;18.63;;;12.73;;
15476;SDS011;7840;42.702;23.296;2023-03-23T08:33:11;15.25;;;13.43;;
15476;SDS011;7840;42.702;23.296;2023-03-23T08:35:39;14.65;;;12.85;;
15476;SDS011;7840;42.702;23.296;2023-03-23T08:38:15;16.98;;;13.88;;
15476;SDS011;7840;42.702;23.296;2023-03-23T08:40:43;17.95;;;14.32;;
15476;SDS011;7840;42.702;23.296;2023-03-23T08:43:11;17.48;;;15.00;;
15476;SDS011;7840;42.702;23.296;2023-03-23T08:45:38;19.17;;;12.82;;
15476;SDS011;7840;42.702;23.296;2023-03-23T08:48:06;12.50;;;10.35;;
15476;SDS011;7840;42.702;23.296;2023-03-23T08:50:37;13.70;;;11.73;;
15476;SDS011;7840;42.702;23.296;2023-03-23T08:53:06;13.25;;;11.32;;
15476;SDS011;7840;42.702;23.296;2023-03-23T08:55:33;12.55;;;11.27;;
15476;SDS011;7840;42.702;23.296;2023-03-23T08:58:00;16.27;;;11.48;;
15476;SDS011;7840;42.702;23.296;2023-03-23T09:00:28;12.88;;;11.57;;
15476;SDS011;7840;42.702;23.296;2023-03-23T09:02:56;12.73;;;10.40;;
15476;SDS011;7840;42.702;23.296;2023-03-23T09:05:24;10.32;;;9.35;;
15476;SDS011;7840;42.702;23.296;2023-03-23T09:07:57;12.10;;;9.30;;
15476;SDS011;7840;42.702;23.296;2023-03-23T09:10:25;13.40;;;9.45;;
15476;SDS011;7840;42.702;23.296;2023-03-23T09:12:55;10.27;;;9.18;;
15476;SDS011;7840;42.702;23.296;2023-03-23T09:15:32;12.13;;;9.10;;
15476;SDS011;7840;42.702;23.296;2023-03-23T09:18:00;8.38;;;7.57;;
15476;SDS011;7840;42.702;23.296;2023-03-23T09:20:28;11.50;;;9.15;;
15476;SDS011;7840;42.702;23.296;2023-03-23T09:22:59;10.60;;;9.25;;
15476;SDS011;7840;42.702;23.296;2023-03-23T09:25:27;10.50;;;8.90;;
15476;SDS011;7840;42.702;23.296;2023-03-23T09:27:55;11.35;;;9.10;;
15476;SDS011;7840;42.702;23.296;2023-03-23T09:30:23;10.20;;;9.25;;
15476;SDS011;7840;42.702;23.296;2023-03-23T09:32:51;11.52;;;8.40;;
15476;SDS011;7840;42.702;23.296;2023-03-23T09:35:19;9.23;;;8.32;;
15476;SDS011;7840;42.702;23.296;2023-03-23T09:37:48;9.88;;;8.88;;
15476;SDS011;7840;42.702;23.296;2023-03-23T09:40:18;9.77;;;8.77;;
15476;SDS011;7840;42.702;23.296;2023-03-23T09:43:05;9.27;;;8.35;;
15476;SDS011;7840;42.702;23.296;2023-03-23T09:45:36;8.57;;;7.70;;
15476;SDS011;7840;42.702;23.296;2023-03-23T09:48:12;8.82;;;7.90;;
15476;SDS011;7840;42.702;23.296;2023-03-23T09:50:44;8.63;;;7.20;;
15476;SDS011;7840;42.702;23.296;2023-03-23T09:53:17;15.18;;;7.10;;
15476;SDS011;7840;42.702;23.296;2023-03-23T09:55:47;8.77;;;7.65;;
15476;SDS011;7840;42.702;23.296;2023-03-23T09:58:17;8.85;;;7.95;;
15476;SDS011;7840;42.702;23.296;2023-03-23T10:00:47;7.68;;;6.97;;
15476;SDS011;7840;42.702;23.296;2023-03-23T10:03:16;8.00;;;6.80;;
15476;SDS011;7840;42.702;23.296;2023-03-23T10:05:45;7.75;;;7.00;;
15476;SDS011;7840;42.702;23.296;2023-03-23T10:08:13;9.05;;;7.80;;
15476;SDS011;7840;42.702;23.296;2023-03-23T10:10:45;9.68;;;7.20;;
15476;SDS011;7840;42.702;23.296;2023-03-23T10:13:17;11.30;;;7.93;;
15476;SDS011;7840;42.702;23.296;2023-03-23T10:15:46;15.35;;;7.70;;
15476;SDS011;7840;42.702;23.296;2023-03-23T10:18:15;7.90;;;7.07;;
15476;SDS011;7840;42.702;23.296;2023-03-23T10:20:46;7.18;;;6.65;;
15476;SDS011;7840;42.702;23.296;2023-03-23T10:23:24;7.38;;;6.53;;
15476;SDS011;7840;42.702;23.296;2023-03-23T10:26:00;7.35;;;6.63;;
15476;SDS011;7840;42.702;23.296;2023-03-23T10:28:36;7.20;;;6.57;;
15476;SDS011;7840;42.702;23.296;2023-03-23T10:31:04;8.73;;;7.82;;
15476;SDS011;7840;42.702;23.296;2023-03-23T10:33:34;11.02;;;8.35;;
15476;SDS011;7840;42.702;23.296;2023-03-23T10:36:05;8.23;;;7.43;;
15476;SDS011;7840;42.702;23.296;2023-03-23T10:38:34;9.07;;;6.88;;
15476;SDS011;7840;42.702;23.296;2023-03-23T10:41:04;8.63;;;7.47;;
15476;SDS011;7840;42.702;23.296;2023-03-23T10:43:36;8.73;;;7.88;;
15476;SDS011;7840;42.702;23.296;2023-03-23T10:46:10;9.48;;;8.65;;
15476;SDS011;7840;42.702;23.296;2023-03-23T10:48:40;8.88;;;8.07;;
15476;SDS011;7840;42.702;23.296;2023-03-23T10:51:09;8.95;;;7.95;;
15476;SDS011;7840;42.702;23.296;2023-03-23T10:53:38;10.13;;;8.43;;
15476;SDS011;7840;42.702;23.296;2023-03-23T10:56:16;11.90;;;8.93;;
15476;SDS011;7840;42.702;23.296;2023-03-23T10:58:47;10.07;;;8.63;;
15476;SDS011;7840;42.702;23.296;2023-03-23T11:01:14;9.30;;;7.90;;
15476;SDS011;7840;42.702;23.296;2023-03-23T11:03:45;8.00;;;7.30;;
15476;SDS011;7840;42.702;23.296;2023-03-23T11:06:19;7.57;;;6.88;;
15476;SDS011;7840;42.702;23.296;2023-03-23T11:08:48;8.00;;;6.70;;
15476;SDS011;7840;42.702;23.296;2023-03-23T11:11:17;8.23;;;6.63;;
15476;SDS011;7840;42.702;23.296;2023-03-23T11:13:48;8.13;;;7.18;;
15476;SDS011;7840;42.702;23.296;2023-03-23T11:16:24;7.28;;;6.68;;
15476;SDS011;7840;42.702;23.296;2023-03-23T11:18:51;7.85;;;7.05;;
15476;SDS011;7840;42.702;23.296;2023-03-23T11:21:19;8.25;;;7.45;;
15476;SDS011;7840;42.702;23.296;2023-03-23T11:23:48;8.98;;;8.07;;
15476;SDS011;7840;42.702;23.296;2023-03-23T11:26:17;8.07;;;6.95;;
15476;SDS011;7840;42.702;23.296;2023-03-23T11:28:48;8.00;;;7.20;;
15476;SDS011;7840;42.702;23.296;2023-03-23T11:31:20;6.80;;;6.20;;
15476;SDS011;7840;42.702;23.296;2023-03-23T11:33:50;7.53;;;6.82;;
15476;SDS011;7840;42.702;23.296;2023-03-23T11:36:18;8.70;;;7.38;;
15476;SDS011;7840;42.702;23.296;2023-03-23T11:38:51;7.05;;;6.35;;
15476;SDS011;7840;42.702;23.296;2023-03-23T11:41:21;6.85;;;6.25;;
15476;SDS011;7840;42.702;23.296;2023-03-23T11:44:02;8.25;;;7.45;;
15476;SDS011;7840;42.702;23.296;2023-03-23T11:46:32;7.05;;;6.45;;
15476;SDS011;7840;42.702;23.296;2023-03-23T11:49:02;6.72;;;6.13;;
15476;SDS011;7840;42.702;23.296;2023-03-23T11:51:33;7.28;;;6.57;;
15476;SDS011;7840;42.702;23.296;2023-03-23T11:54:04;7.72;;;6.93;;
15476;SDS011;7840;42.702;23.296;2023-03-23T11:56:36;10.48;;;6.72;;
15476;SDS011;7840;42.702;23.296;2023-03-23T11:59:09;7.03;;;6.38;;
15476;SDS011;7840;42.702;23.296;2023-03-23T12:01:47;7.28;;;6.57;;
15476;SDS011;7840;42.702;23.296;2023-03-23T12:07:00;11.00;;;6.90;;
15476;SDS011;7840;42.702;23.296;2023-03-23T12:09:34;8.63;;;6.40;;
15476;SDS011;7840;42.702;23.296;2023-03-23T12:12:09;8.05;;;6.43;;
15476;SDS011;7840;42.702;23.296;2023-03-23T12:14:42;6.30;;;5.80;;
15476;SDS011;7840;42.702;23.296;2023-03-23T12:17:15;6.60;;;5.45;;
15476;SDS011;7840;42.702;23.296;2023-03-23T12:19:47;5.80;;;5.30;;
15476;SDS011;7840;42.702;23.296;2023-03-23T12:22:20;6.15;;;5.65;;
15476;SDS011;7840;42.702;23.296;2023-03-23T12:24:55;6.10;;;5.60;;
15476;SDS011;7840;42.702;23.296;2023-03-23T12:27:25;6.15;;;5.55;;
15476;SDS011;7840;42.702;23.296;2023-03-23T12:29:59;6.25;;;5.75;;
15476;SDS011;7840;42.702;23.296;2023-03-23T12:32:35;6.13;;;5.45;;
15476;SDS011;7840;42.702;23.296;2023-03-23T12:35:13;6.13;;;5.53;;
15476;SDS011;7840;42.702;23.296;2023-03-23T12:37:48;7.35;;;6.20;;
15476;SDS011;7840;42.702;23.296;2023-03-23T12:40:35;10.70;;;6.18;;
15476;SDS011;7840;42.702;23.296;2023-03-23T12:43:08;5.55;;;5.15;;
15476;SDS011;7840;42.702;23.296;2023-03-23T12:45:47;6.53;;;5.47;;
15476;SDS011;7840;42.702;23.296;2023-03-23T12:48:18;10.48;;;5.70;;
15476;SDS011;7840;42.702;23.296;2023-03-23T12:51:00;8.13;;;6.60;;
15476;SDS011;7840;42.702;23.296;2023-03-23T12:53:31;6.75;;;6.20;;
15476;SDS011;7840;42.702;23.296;2023-03-23T12:56:06;6.05;;;5.40;;
15476;SDS011;7840;42.702;23.296;2023-03-23T12:58:38;5.68;;;5.18;;
15476;SDS011;7840;42.702;23.296;2023-03-23T13:01:09;5.93;;;5.38;;
15476;SDS011;7840;42.702;23.296;2023-03-23T13:03:39;6.47;;;4.88;;
15476;SDS011;7840;42.702;23.296;2023-03-23T13:06:12;8.32;;;5.07;;
15476;SDS011;7840;42.702;23.296;2023-03-23T13:08:44;5.95;;;5.45;;
15476;SDS011;7840;42.702;23.296;2023-03-23T13:11:15;8.45;;;5.43;;
15476;SDS011;7840;42.702;23.296;2023-03-23T13:13:45;6.70;;;6.10;;
15476;SDS011;7840;42.702;23.296;2023-03-23T13:16:19;6.25;;;5.63;;
15476;SDS011;7840;42.702;23.296;2023-03-23T13:18:49;5.88;;;5.30;;
15476;SDS011;7840;42.702;23.296;2023-03-23T13:21:21;5.75;;;5.25;;
15476;SDS011;7840;42.702;23.296;2023-03-23T13:23:53;5.20;;;4.72;;
15476;SDS011;7840;42.702;23.296;2023-03-23T13:26:21;5.07;;;4.65;;
15476;SDS011;7840;42.702;23.296;2023-03-23T13:28:51;5.50;;;4.97;;
15476;SDS011;7840;42.702;23.296;2023-03-23T13:31:24;5.75;;;5.25;;
15476;SDS011;7840;42.702;23.296;2023-03-23T13:33:57;5.22;;;4.72;;
15476;SDS011;7840;42.702;23.296;2023-03-23T13:36:27;5.35;;;4.85;;
15476;SDS011;7840;42.702;23.296;2023-03-23T13:38:55;4.70;;;4.30;;
15476;SDS011;7840;42.702;23.296;2023-03-23T13:41:26;10.55;;;5.40;;
15476;SDS011;7840;42.702;23.296;2023-03-23T13:44:04;6.13;;;5.53;;
15476;SDS011;7840;42.702;23.296;2023-03-23T13:46:34;6.60;;;5.57;;
15476;SDS011;7840;42.702;23.296;2023-03-23T13:49:14;5.93;;;5.43;;
15476;SDS011;7840;42.702;23.296;2023-03-23T13:51:51;7.82;;;5.68;;
15476;SDS011;7840;42.702;23.296;2023-03-23T13:54:23;5.63;;;5.10;;
15476;SDS011;7840;42.702;23.296;2023-03-23T13:56:53;5.75;;;5.25;;
15476;SDS011;7840;42.702;23.296;2023-03-23T13:59:31;4.88;;;4.47;;
15476;SDS011;7840;42.702;23.296;2023-03-23T14:07:53;6.25;;;5.63;;
15476;SDS011;7840;42.702;23.296;2023-03-23T14:10:25;5.57;;;5.07;;
15476;SDS011;7840;42.702;23.296;2023-03-23T14:12:58;5.28;;;4.88;;
15476;SDS011;7840;42.702;23.296;2023-03-23T14:15:27;5.75;;;5.25;;
15476;SDS011;7840;42.702;23.296;2023-03-23T14:17:55;5.93;;;5.22;;
15476;SDS011;7840;42.702;23.296;2023-03-23T14:20:24;6.72;;;5.32;;
15476;SDS011;7840;42.702;23.296;2023-03-23T14:22:54;8.20;;;5.22;;
15476;SDS011;7840;42.702;23.296;2023-03-23T14:25:22;5.32;;;4.90;;
15476;SDS011;7840;42.702;23.296;2023-03-23T14:27:50;9.90;;;5.38;;
15476;SDS011;7840;42.702;23.296;2023-03-23T14:30:19;7.78;;;5.10;;
15476;SDS011;7840;42.702;23.296;2023-03-23T14:32:47;8.30;;;6.10;;
15476;SDS011;7840;42.702;23.296;2023-03-23T14:35:23;7.35;;;5.35;;
15476;SDS011;7840;42.702;23.296;2023-03-23T14:37:52;6.35;;;5.15;;
15476;SDS011;7840;42.702;23.296;2023-03-23T14:40:21;8.88;;;5.70;;
15476;SDS011;7840;42.702;23.296;2023-03-23T14:42:50;6.07;;;5.43;;
15476;SDS011;7840;42.702;23.296;2023-03-23T14:45:21;6.25;;;5.15;;
15476;SDS011;7840;42.702;23.296;2023-03-23T14:47:51;5.93;;;5.38;;
15476;SDS011;7840;42.702;23.296;2023-03-23T14:50:30;6.57;;;5.45;;
15476;SDS011;7840;42.702;23.296;2023-03-23T14:52:59;6.22;;;5.60;;
15476;SDS011;7840;42.702;23.296;2023-03-23T14:55:30;9.27;;;5.18;;
15476;SDS011;7840;42.702;23.296;2023-03-23T14:58:06;8.15;;;4.93;;
15476;SDS011;7840;42.702;23.296;2023-03-23T15:00:36;12.15;;;5.30;;
15476;SDS011;7840;42.702;23.296;2023-03-23T15:03:18;7.75;;;5.78;;
15476;SDS011;7840;42.702;23.296;2023-03-23T15:05:47;5.63;;;4.97;;
15476;SDS011;7840;42.702;23.296;2023-03-23T15:08:16;7.72;;;5.80;;
15476;SDS011;7840;42.702;23.296;2023-03-23T15:10:52;6.63;;;5.15;;
15476;SDS011;7840;42.702;23.296;2023-03-23T15:13:20;8.88;;;5.32;;
15476;SDS011;7840;42.702;23.296;2023-03-23T15:16:03;5.82;;;5.32;;
15476;SDS011;7840;42.702;23.296;2023-03-23T15:18:44;6.28;;;5.32;;
15476;SDS011;7840;42.702;23.296;2023-03-23T15:21:19;8.38;;;5.68;;
15476;SDS011;7840;42.702;23.296;2023-03-23T15:23:51;10.15;;;5.63;;
15476;SDS011;7840;42.702;23.296;2023-03-23T15:26:26;8.55;;;6.00;;
15476;SDS011;7840;42.702;23.296;2023-03-23T15:29:08;15.23;;;6.35;;
15476;SDS011;7840;42.702;23.296;2023-03-23T15:31:41;5.93;;;5.43;;
15476;SDS011;7840;42.702;23.296;2023-03-23T15:34:28;9.43;;;5.53;;
15476;SDS011;7840;42.702;23.296;2023-03-23T15:37:16;5.95;;;5.35;;
15476;SDS011;7840;42.702;23.296;2023-03-23T15:39:45;10.73;;;5.10;;